Time,TemperatureF,DewpointF,PressureIn,WindDirection,WindDirectionDegrees,WindSpeedMPH,WindSpeedGustMPH,Humidity,HourlyPrecipIn,Conditions,Clouds,dailyrainin,SoftwareType,DateUTC
2013-05-12 00:01:00,66.8,55.1,30.15,North,350,3.0,6.0,66,0.00,,,0.00,VWS V14.01,2013-05-12 05:01:00,
2013-05-12 00:06:00,66.8,55.1,30.15,NNE,30,1.0,7.0,66,0.00,,,0.00,VWS V14.01,2013-05-12 05:06:00,
2013-05-12 00:11:00,66.8,55.1,30.15,NNE,15,4.0,6.0,66,0.00,,,0.00,VWS V14.01,2013-05-12 05:11:00,
2013-05-12 00:16:00,66.7,55.0,30.15,NNW,340,3.0,5.0,66,0.00,,,0.00,VWS V14.01,2013-05-12 05:16:00,
2013-05-12 00:21:00,66.7,55.0,30.15,North,5,2.0,5.0,66,0.00,,,0.00,VWS V14.01,2013-05-12 05:21:00,
2013-05-12 00:26:00,66.6,55.3,30.15,NNE,23,2.0,7.0,67,0.00,,,0.00,VWS V14.01,2013-05-12 05:26:00,
2013-05-12 00:31:00,66.5,55.2,30.15,NNW,339,5.0,8.0,67,0.00,,,0.00,VWS V14.01,2013-05-12 05:31:00,
2013-05-12 00:36:00,66.3,55.0,30.15,NNW,343,0.0,5.0,67,0.00,,,0.00,VWS V14.01,2013-05-12 05:36:00,
2013-05-12 00:41:00,66.2,55.3,30.15,NNE,17,5.0,6.0,68,0.00,,,0.00,VWS V14.01,2013-05-12 05:41:00,
2013-05-12 00:46:00,66.1,55.2,30.15,North,355,3.0,6.0,68,0.00,,,0.00,VWS V14.01,2013-05-12 05:46:00,
2013-05-12 00:51:00,65.9,55.0,30.15,North,349,5.0,6.0,68,0.00,,,0.00,VWS V14.01,2013-05-12 05:51:00,
2013-05-12 00:56:00,65.8,55.0,30.15,NNW,346,4.0,7.0,68,0.00,,,0.00,VWS V14.01,2013-05-12 05:56:00,
2013-05-12 01:01:00,65.7,54.9,30.15,NNW,334,2.0,6.0,68,0.00,,,0.00,VWS V14.01,2013-05-12 06:01:00,
2013-05-12 01:06:00,65.6,54.8,30.15,NNW,329,1.0,4.0,68,0.00,,,0.00,VWS V14.01,2013-05-12 06:06:00,
2013-05-12 01:11:00,65.4,54.6,30.16,NE,55,1.0,7.0,68,0.00,,,0.00,VWS V14.01,2013-05-12 06:11:00,
2013-05-12 01:16:00,65.3,54.5,30.15,NNE,15,3.0,6.0,68,0.00,,,0.00,VWS V14.01,2013-05-12 06:16:00,
2013-05-12 01:21:00,65.2,54.8,30.15,North,355,2.0,6.0,69,0.00,,,0.00,VWS V14.01,2013-05-12 06:21:00,
2013-05-12 01:26:00,65.1,54.7,30.15,North,360,3.0,5.0,69,0.00,,,0.00,VWS V14.01,2013-05-12 06:26:00,
2013-05-12 01:31:00,65.0,54.6,30.15,NW,323,1.0,5.0,69,0.00,,,0.00,VWS V14.01,2013-05-12 06:31:00,
2013-05-12 01:36:00,64.9,54.5,30.15,North,355,5.0,6.0,69,0.00,,,0.00,VWS V14.01,2013-05-12 06:36:00,
2013-05-12 01:41:00,64.7,54.7,30.15,North,5,4.0,6.0,70,0.00,,,0.00,VWS V14.01,2013-05-12 06:41:00,
2013-05-12 01:46:00,64.6,54.6,30.15,NW,311,3.0,6.0,70,0.00,,,0.00,VWS V14.01,2013-05-12 06:46:00,
2013-05-12 01:51:00,64.4,54.4,30.15,NNE,22,4.0,8.0,70,0.00,,,0.00,VWS V14.01,2013-05-12 06:51:00,
2013-05-12 01:56:00,64.3,54.3,30.15,North,355,3.0,6.0,70,0.00,,,0.00,VWS V14.01,2013-05-12 06:56:00,
2013-05-12 02:01:00,64.1,54.1,30.15,NNW,346,4.0,10.0,70,0.00,,,0.00,VWS V14.01,2013-05-12 07:01:00,
2013-05-12 02:06:00,64.0,53.6,30.15,North,360,3.0,9.0,69,0.00,,,0.00,VWS V14.01,2013-05-12 07:06:00,
2013-05-12 02:11:00,63.9,53.5,30.15,NNW,329,4.0,9.0,69,0.00,,,0.00,VWS V14.01,2013-05-12 07:11:00,
2013-05-12 02:16:00,63.8,53.0,30.15,North,5,3.0,8.0,68,0.00,,,0.00,VWS V14.01,2013-05-12 07:16:00,
2013-05-12 02:21:00,63.7,53.0,30.15,North,355,6.0,7.0,68,0.00,,,0.00,VWS V14.01,2013-05-12 07:21:00,
2013-05-12 02:26:00,63.6,52.9,30.16,WNW,296,4.0,8.0,68,0.00,,,0.00,VWS V14.01,2013-05-12 07:26:00,
2013-05-12 02:31:00,63.5,53.2,30.16,North,355,2.0,8.0,69,0.00,,,0.00,VWS V14.01,2013-05-12 07:31:00,
2013-05-12 02:36:00,63.5,53.2,30.16,North,355,4.0,6.0,69,0.00,,,0.00,VWS V14.01,2013-05-12 07:36:00,
2013-05-12 02:41:00,63.5,53.2,30.16,NNE,15,2.0,6.0,69,0.00,,,0.00,VWS V14.01,2013-05-12 07:41:00,
2013-05-12 02:46:00,63.5,53.2,30.16,NNW,345,5.0,7.0,69,0.00,,,0.00,VWS V14.01,2013-05-12 07:46:00,
2013-05-12 02:51:00,63.5,53.2,30.16,North,5,5.0,6.0,69,0.00,,,0.00,VWS V14.01,2013-05-12 07:51:00,
2013-05-12 02:56:00,63.5,53.2,30.16,NNW,331,1.0,5.0,69,0.00,,,0.00,VWS V14.01,2013-05-12 07:56:00,
2013-05-12 03:01:00,63.5,53.2,30.16,NNE,15,4.0,7.0,69,0.00,,,0.00,VWS V14.01,2013-05-12 08:01:00,
2013-05-12 03:06:00,63.5,53.2,30.16,North,9,5.0,8.0,69,0.00,,,0.00,VWS V14.01,2013-05-12 08:06:00,
2013-05-12 03:11:00,63.5,53.2,30.16,North,5,1.0,4.0,69,0.00,,,0.00,VWS V14.01,2013-05-12 08:11:00,
2013-05-12 03:16:00,63.5,53.2,30.16,North,5,5.0,10.0,69,0.00,,,0.00,VWS V14.01,2013-05-12 08:16:00,
2013-05-12 03:21:00,63.5,53.2,30.16,NNW,329,6.0,7.0,69,0.00,,,0.00,VWS V14.01,2013-05-12 08:21:00,
2013-05-12 03:26:00,63.5,53.2,30.16,NNE,27,5.0,7.0,69,0.00,,,0.00,VWS V14.01,2013-05-12 08:26:00,
2013-05-12 03:31:00,61.8,50.3,30.16,NNE,26,1.0,8.0,66,0.00,,,0.00,VWS V14.01,2013-05-12 08:31:00,
2013-05-12 03:36:00,61.7,50.2,30.16,ENE,67,4.0,5.0,66,0.00,,,0.00,VWS V14.01,2013-05-12 08:36:00,
2013-05-12 03:41:00,61.6,50.1,30.16,NNW,342,1.0,7.0,66,0.00,,,0.00,VWS V14.01,2013-05-12 08:41:00,
2013-05-12 03:46:00,61.4,50.0,30.16,North,349,2.0,7.0,66,0.00,,,0.00,VWS V14.01,2013-05-12 08:46:00,
2013-05-12 03:51:00,61.3,50.3,30.17,NNE,31,1.0,5.0,67,0.00,,,0.00,VWS V14.01,2013-05-12 08:51:00,
2013-05-12 03:56:00,61.1,50.1,30.17,North,355,1.0,4.0,67,0.00,,,0.00,VWS V14.01,2013-05-12 08:56:00,
2013-05-12 04:01:00,60.9,49.5,30.17,NW,321,4.0,5.0,66,0.00,,,0.00,VWS V14.01,2013-05-12 09:01:00,
2013-05-12 04:06:00,60.7,49.3,30.17,NNW,338,2.0,7.0,66,0.00,,,0.00,VWS V14.01,2013-05-12 09:06:00,
2013-05-12 04:11:00,60.5,49.1,30.17,NNW,334,5.0,6.0,66,0.00,,,0.00,VWS V14.01,2013-05-12 09:11:00,
2013-05-12 04:16:00,60.3,48.5,30.17,North,351,3.0,6.0,65,0.00,,,0.00,VWS V14.01,2013-05-12 09:16:00,
2013-05-12 04:21:00,60.2,48.4,30.17,NNE,28,1.0,3.0,65,0.00,,,0.00,VWS V14.01,2013-05-12 09:21:00,
2013-05-12 04:26:00,60.1,47.9,30.17,North,360,5.0,8.0,64,0.00,,,0.00,VWS V14.01,2013-05-12 09:26:00,
2013-05-12 04:31:00,59.9,47.7,30.17,North,5,3.0,8.0,64,0.00,,,0.00,VWS V14.01,2013-05-12 09:31:00,
2013-05-12 04:36:00,59.8,46.8,30.16,NNE,15,4.0,8.0,62,0.00,,,0.00,VWS V14.01,2013-05-12 09:36:00,
2013-05-12 04:41:00,59.7,46.7,30.17,North,360,5.0,9.0,62,0.00,,,0.00,VWS V14.01,2013-05-12 09:41:00,
2013-05-12 04:46:00,59.7,46.2,30.17,NNW,346,4.0,8.0,61,0.00,,,0.00,VWS V14.01,2013-05-12 09:46:00,
2013-05-12 04:51:00,59.6,46.2,30.17,North,9,4.0,6.0,61,0.00,,,0.00,VWS V14.01,2013-05-12 09:51:00,
2013-05-12 04:56:00,59.4,46.0,30.17,NNW,338,5.0,10.0,61,0.00,,,0.00,VWS V14.01,2013-05-12 09:56:00,
2013-05-12 05:01:00,59.3,45.9,30.17,NNW,341,2.0,3.0,61,0.00,,,0.00,VWS V14.01,2013-05-12 10:01:00,
2013-05-12 05:06:00,59.2,45.8,30.18,North,355,8.0,8.0,61,0.00,,,0.00,VWS V14.01,2013-05-12 10:06:00,
2013-05-12 05:11:00,59.0,45.6,30.18,North,355,2.0,6.0,61,0.00,,,0.00,VWS V14.01,2013-05-12 10:11:00,
2013-05-12 05:16:00,58.9,45.5,30.18,North,5,2.0,4.0,61,0.00,,,0.00,VWS V14.01,2013-05-12 10:16:00,
2013-05-12 05:21:00,58.7,45.3,30.18,NNW,338,0.0,4.0,61,0.00,,,0.00,VWS V14.01,2013-05-12 10:21:00,
2013-05-12 05:26:00,58.6,45.2,30.18,NNW,345,1.0,4.0,61,0.00,,,0.00,VWS V14.01,2013-05-12 10:26:00,
2013-05-12 05:31:00,58.4,45.0,30.18,NW,323,1.0,7.0,61,0.00,,,0.00,VWS V14.01,2013-05-12 10:31:00,
2013-05-12 05:36:00,58.3,45.3,30.18,NW,323,1.0,3.0,62,0.00,,,0.00,VWS V14.01,2013-05-12 10:36:00,
2013-05-12 05:41:00,58.2,45.3,30.18,NW,323,1.0,3.0,62,0.00,,,0.00,VWS V14.01,2013-05-12 10:41:00,
2013-05-12 05:46:00,57.9,45.0,30.18,NW,323,2.0,3.0,62,0.00,,,0.00,VWS V14.01,2013-05-12 10:46:00,
2013-05-12 05:51:00,57.7,45.2,30.18,NW,320,2.0,3.0,63,0.00,,,0.00,VWS V14.01,2013-05-12 10:51:00,
2013-05-12 05:56:00,57.4,44.9,30.19,NNW,346,1.0,4.0,63,0.00,,,0.00,VWS V14.01,2013-05-12 10:56:00,
2013-05-12 06:01:00,57.2,44.7,30.18,NNW,343,1.0,3.0,63,0.00,,,0.00,VWS V14.01,2013-05-12 11:01:00,
2013-05-12 06:06:00,57.0,45.0,30.18,NNW,335,1.0,2.0,64,0.00,,,0.00,VWS V14.01,2013-05-12 11:06:00,
2013-05-12 06:11:00,56.8,44.8,30.19,NNW,335,1.0,2.0,64,0.00,,,0.00,VWS V14.01,2013-05-12 11:11:00,
2013-05-12 06:16:00,56.6,44.6,30.19,NNW,335,0.0,2.0,64,0.00,,,0.00,VWS V14.01,2013-05-12 11:16:00,
2013-05-12 06:21:00,56.3,44.3,30.19,NNW,336,1.0,2.0,64,0.00,,,0.00,VWS V14.01,2013-05-12 11:21:00,
2013-05-12 06:26:00,56.1,44.1,30.19,NNW,336,0.0,2.0,64,0.00,,,0.00,VWS V14.01,2013-05-12 11:26:00,
2013-05-12 06:30:00,56.1,44.1,30.20,NNW,336,0.0,0.0,64,0.00,,,0.00,VWS V14.01,2013-05-12 11:30:00,
2013-05-12 06:35:00,55.5,43.9,30.20,NE,44,0.0,2.0,65,0.00,,,0.00,VWS V14.01,2013-05-12 11:35:00,
2013-05-12 06:40:00,55.2,44.0,30.20,NE,44,0.0,1.0,66,0.00,,,0.00,VWS V14.01,2013-05-12 11:40:00,
2013-05-12 06:45:00,54.9,44.2,30.20,SW,219,1.0,2.0,67,0.00,,,0.00,VWS V14.01,2013-05-12 11:45:00,
2013-05-12 06:50:00,54.7,44.0,30.21,SW,219,0.0,0.0,67,0.00,,,0.00,VWS V14.01,2013-05-12 11:50:00,
2013-05-12 06:55:00,54.5,44.2,30.21,NW,319,0.0,1.0,68,0.00,,,0.00,VWS V14.01,2013-05-12 11:55:00,
2013-05-12 07:00:00,54.3,44.0,30.22,South,182,0.0,0.0,68,0.00,,,0.00,VWS V14.01,2013-05-12 12:00:00,
2013-05-12 07:05:00,54.1,43.8,30.22,South,182,0.0,0.0,68,0.00,,,0.00,VWS V14.01,2013-05-12 12:05:00,
2013-05-12 07:10:00,54.0,44.1,30.22,South,182,0.0,2.0,69,0.00,,,0.00,VWS V14.01,2013-05-12 12:10:00,
2013-05-12 07:15:00,53.9,44.3,30.22,NW,320,0.0,2.0,70,0.00,,,0.00,VWS V14.01,2013-05-12 12:15:00,
2013-05-12 07:20:00,53.7,44.5,30.22,NW,320,0.0,1.0,71,0.00,,,0.00,VWS V14.01,2013-05-12 12:20:00,
2013-05-12 07:25:00,53.6,44.4,30.22,NW,320,0.0,1.0,71,0.00,,,0.00,VWS V14.01,2013-05-12 12:25:00,
2013-05-12 07:30:00,53.6,44.8,30.22,NW,320,0.0,0.0,72,0.00,,,0.00,VWS V14.01,2013-05-12 12:30:00,
2013-05-12 07:35:00,53.7,45.3,30.23,NW,320,1.0,2.0,73,0.00,,,0.00,VWS V14.01,2013-05-12 12:35:00,
2013-05-12 07:40:00,53.9,45.8,30.22,NW,320,0.0,2.0,74,0.00,,,0.00,VWS V14.01,2013-05-12 12:40:00,
2013-05-12 07:45:00,54.1,45.7,30.23,NW,320,2.0,3.0,73,0.00,,,0.00,VWS V14.01,2013-05-12 12:45:00,
2013-05-12 07:50:00,54.4,45.2,30.23,NW,321,0.0,1.0,71,0.00,,,0.00,VWS V14.01,2013-05-12 12:50:00,
2013-05-12 07:55:00,54.7,44.7,30.23,NW,322,2.0,2.0,69,0.00,,,0.00,VWS V14.01,2013-05-12 12:55:00,
2013-05-12 08:00:00,55.1,43.6,30.23,ENE,67,1.0,2.0,65,0.00,,,0.00,VWS V14.01,2013-05-12 13:00:00,
2013-05-12 08:05:00,55.7,43.3,30.24,NE,42,0.0,3.0,63,0.00,,,0.00,VWS V14.01,2013-05-12 13:05:00,
2013-05-12 08:10:00,56.5,42.8,30.23,East,91,2.0,6.0,60,0.00,,,0.00,VWS V14.01,2013-05-12 13:10:00,
2013-05-12 08:15:00,57.2,42.6,30.23,North,360,4.0,6.0,58,0.00,,,0.00,VWS V14.01,2013-05-12 13:15:00,
2013-05-12 08:20:00,57.9,42.3,30.23,ENE,76,1.0,5.0,56,0.00,,,0.00,VWS V14.01,2013-05-12 13:20:00,
2013-05-12 08:25:00,58.6,42.5,30.23,NE,46,4.0,8.0,55,0.00,,,0.00,VWS V14.01,2013-05-12 13:25:00,
2013-05-12 08:30:00,59.3,42.2,30.23,NNE,17,1.0,4.0,53,0.00,,,0.00,VWS V14.01,2013-05-12 13:30:00,
2013-05-12 08:35:00,59.9,42.2,30.23,North,5,2.0,7.0,52,0.00,,,0.00,VWS V14.01,2013-05-12 13:35:00,
2013-05-12 08:40:00,60.5,42.3,30.23,ENE,68,5.0,6.0,51,0.00,,,0.00,VWS V14.01,2013-05-12 13:40:00,
2013-05-12 08:45:00,61.0,41.2,30.23,ENE,76,7.0,7.0,48,0.00,,,0.00,VWS V14.01,2013-05-12 13:45:00,
2013-05-12 08:50:00,61.6,40.6,30.23,NE,46,2.0,6.0,46,0.00,,,0.00,VWS V14.01,2013-05-12 13:50:00,
2013-05-12 08:55:00,62.2,40.6,30.23,NNE,20,3.0,9.0,45,0.00,,,0.00,VWS V14.01,2013-05-12 13:55:00,
2013-05-12 09:00:00,62.7,39.9,30.24,East,90,6.0,6.0,43,0.00,,,0.00,VWS V14.01,2013-05-12 14:00:00,
2013-05-12 09:05:00,63.3,39.2,30.24,NNE,30,5.0,8.0,41,0.00,,,0.00,VWS V14.01,2013-05-12 14:05:00,
2013-05-12 09:10:00,63.7,39.6,30.24,ENE,78,10.0,13.0,41,0.00,,,0.00,VWS V14.01,2013-05-12 14:10:00,
2013-05-12 09:15:00,64.2,38.8,30.24,ENE,58,7.0,9.0,39,0.00,,,0.00,VWS V14.01,2013-05-12 14:15:00,
2013-05-12 09:20:00,64.5,38.3,30.24,NE,36,2.0,8.0,38,0.00,,,0.00,VWS V14.01,2013-05-12 14:20:00,
2013-05-12 09:25:00,65.0,39.5,30.24,East,79,7.0,9.0,39,0.00,,,0.00,VWS V14.01,2013-05-12 14:25:00,
2013-05-12 09:30:00,65.6,38.7,30.24,ENE,71,8.0,9.0,37,0.00,,,0.00,VWS V14.01,2013-05-12 14:30:00,
2013-05-12 09:35:00,66.1,37.7,30.24,ENE,61,10.0,13.0,35,0.00,,,0.00,VWS V14.01,2013-05-12 14:35:00,
2013-05-12 09:40:00,66.5,36.5,30.24,NE,42,8.0,12.0,33,0.00,,,0.00,VWS V14.01,2013-05-12 14:40:00,
2013-05-12 09:45:00,66.7,37.5,30.24,ESE,106,7.0,10.0,34,0.00,,,0.00,VWS V14.01,2013-05-12 14:45:00,
2013-05-12 09:50:00,67.1,37.8,30.24,East,87,6.0,12.0,34,0.00,,,0.00,VWS V14.01,2013-05-12 14:50:00,
2013-05-12 09:55:00,67.6,36.7,30.24,ENE,61,4.0,10.0,32,0.00,,,0.00,VWS V14.01,2013-05-12 14:55:00,
2013-05-12 10:00:00,67.9,37.0,30.23,NE,43,10.0,10.0,32,0.00,,,0.00,VWS V14.01,2013-05-12 15:00:00,
2013-05-12 10:05:00,68.3,37.3,30.23,ESE,111,11.0,11.0,32,0.00,,,0.00,VWS V14.01,2013-05-12 15:05:00,
2013-05-12 10:10:00,68.8,37.0,30.23,NE,51,6.0,8.0,31,0.00,,,0.00,VWS V14.01,2013-05-12 15:10:00,
2013-05-12 10:15:00,69.1,37.2,30.23,North,350,1.0,10.0,31,0.00,,,0.00,VWS V14.01,2013-05-12 15:15:00,
2013-05-12 10:20:00,69.4,36.7,30.24,NE,48,9.0,10.0,30,0.00,,,0.00,VWS V14.01,2013-05-12 15:20:00,
2013-05-12 10:25:00,69.5,36.7,30.23,NNE,18,4.0,7.0,30,0.00,,,0.00,VWS V14.01,2013-05-12 15:25:00,
2013-05-12 10:30:00,70.1,38.9,30.24,East,84,1.0,9.0,32,0.00,,,0.00,VWS V14.01,2013-05-12 15:30:00,
2013-05-12 10:35:00,70.6,38.5,30.24,ESE,105,4.0,4.0,31,0.00,,,0.00,VWS V14.01,2013-05-12 15:35:00,
2013-05-12 10:40:00,71.0,38.9,30.24,ENE,57,5.0,10.0,31,0.00,,,0.00,VWS V14.01,2013-05-12 15:40:00,
2013-05-12 10:45:00,71.3,38.3,30.24,ENE,69,4.0,7.0,30,0.00,,,0.00,VWS V14.01,2013-05-12 15:45:00,
2013-05-12 10:50:00,71.7,36.0,30.24,East,85,8.0,14.0,27,0.00,,,0.00,VWS V14.01,2013-05-12 15:50:00,
2013-05-12 10:55:00,71.7,36.0,30.24,NE,42,4.0,8.0,27,0.00,,,0.00,VWS V14.01,2013-05-12 15:55:00,
2013-05-12 11:00:00,71.9,36.1,30.24,ESE,120,4.0,7.0,27,0.00,,,0.00,VWS V14.01,2013-05-12 16:00:00,
2013-05-12 11:05:00,72.2,39.1,30.24,East,95,7.0,9.0,30,0.00,,,0.00,VWS V14.01,2013-05-12 16:05:00,
2013-05-12 11:10:00,72.4,37.5,30.24,North,5,3.0,5.0,28,0.00,,,0.00,VWS V14.01,2013-05-12 16:10:00,
2013-05-12 11:15:00,72.3,35.5,30.24,ENE,67,10.0,10.0,26,0.00,,,0.00,VWS V14.01,2013-05-12 16:15:00,
2013-05-12 11:20:00,72.2,36.4,30.24,East,86,5.0,7.0,27,0.00,,,0.00,VWS V14.01,2013-05-12 16:20:00,
2013-05-12 11:25:00,72.3,39.2,30.24,ESE,109,5.0,7.0,30,0.00,,,0.00,VWS V14.01,2013-05-12 16:25:00,
2013-05-12 11:30:00,72.9,41.3,30.24,East,98,2.0,2.0,32,0.00,,,0.00,VWS V14.01,2013-05-12 16:30:00,
2013-05-12 11:35:00,73.5,39.3,30.24,East,82,9.0,10.0,29,0.00,,,0.00,VWS V14.01,2013-05-12 16:35:00,
2013-05-12 11:40:00,73.9,38.8,30.24,East,89,7.0,11.0,28,0.00,,,0.00,VWS V14.01,2013-05-12 16:40:00,
2013-05-12 11:45:00,73.9,37.8,30.24,SE,135,0.0,2.0,27,0.00,,,0.00,VWS V14.01,2013-05-12 16:45:00,
2013-05-12 11:50:00,74.2,37.1,30.24,ENE,67,2.0,2.0,26,0.00,,,0.00,VWS V14.01,2013-05-12 16:50:00,
2013-05-12 11:55:00,74.6,37.5,30.24,NE,43,7.0,7.0,26,0.00,,,0.00,VWS V14.01,2013-05-12 16:55:00,
2013-05-12 12:00:00,74.8,37.7,30.24,East,94,5.0,7.0,26,0.00,,,0.00,VWS V14.01,2013-05-12 17:00:00,
2013-05-12 12:05:00,75.1,37.9,30.24,ENE,74,5.0,8.0,26,0.00,,,0.00,VWS V14.01,2013-05-12 17:05:00,
2013-05-12 12:10:00,75.1,34.8,30.24,East,88,6.0,11.0,23,0.00,,,0.00,VWS V14.01,2013-05-12 17:10:00,
2013-05-12 12:15:00,74.9,37.7,30.24,ESE,103,8.0,9.0,26,0.00,,,0.00,VWS V14.01,2013-05-12 17:15:00,
2013-05-12 12:20:00,74.8,34.6,30.23,SE,136,4.0,4.0,23,0.00,,,0.00,VWS V14.01,2013-05-12 17:20:00,
2013-05-12 12:25:00,75.1,34.8,30.23,ENE,78,5.0,8.0,23,0.00,,,0.00,VWS V14.01,2013-05-12 17:25:00,
2013-05-12 12:30:00,75.2,37.0,30.23,SE,124,4.0,7.0,25,0.00,,,0.00,VWS V14.01,2013-05-12 17:30:00,
2013-05-12 12:35:00,75.5,35.2,30.22,North,11,1.0,4.0,23,0.00,,,0.00,VWS V14.01,2013-05-12 17:35:00,
2013-05-12 12:40:00,75.5,34.0,30.22,East,86,3.0,7.0,22,0.00,,,0.00,VWS V14.01,2013-05-12 17:40:00,
2013-05-12 12:45:00,75.8,35.4,30.23,ENE,74,3.0,5.0,23,0.00,,,0.00,VWS V14.01,2013-05-12 17:45:00,
2013-05-12 12:50:00,76.0,36.6,30.23,WNW,296,4.0,5.0,24,0.00,,,0.00,VWS V14.01,2013-05-12 17:50:00,
2013-05-12 12:55:00,75.8,37.5,30.22,East,93,1.0,7.0,25,0.00,,,0.00,VWS V14.01,2013-05-12 17:55:00,
2013-05-12 13:00:00,76.1,36.7,30.22,SSE,161,5.0,5.0,24,0.00,,,0.00,VWS V14.01,2013-05-12 18:00:00,
2013-05-12 13:05:00,76.4,38.0,30.22,SSE,165,0.0,2.0,25,0.00,,,0.00,VWS V14.01,2013-05-12 18:05:00,
2013-05-12 13:10:00,76.5,33.7,30.22,NNW,328,4.0,5.0,21,0.00,,,0.00,VWS V14.01,2013-05-12 18:10:00,
2013-05-12 13:15:00,76.2,37.8,30.22,NE,51,4.0,5.0,25,0.00,,,0.00,VWS V14.01,2013-05-12 18:15:00,
2013-05-12 13:20:00,76.3,35.8,30.22,WNW,302,4.0,6.0,23,0.00,,,0.00,VWS V14.01,2013-05-12 18:20:00,
2013-05-12 13:25:00,76.1,37.8,30.22,West,267,5.0,5.0,25,0.00,,,0.00,VWS V14.01,2013-05-12 18:25:00,
2013-05-12 13:30:00,76.6,39.2,30.22,WNW,290,3.0,5.0,26,0.00,,,0.00,VWS V14.01,2013-05-12 18:30:00,
2013-05-12 13:35:00,77.0,40.5,30.21,North,5,3.0,4.0,27,0.00,,,0.00,VWS V14.01,2013-05-12 18:35:00,
2013-05-12 13:40:00,77.5,37.9,30.21,East,94,3.0,7.0,24,0.00,,,0.00,VWS V14.01,2013-05-12 18:40:00,
2013-05-12 13:45:00,78.0,38.3,30.21,ESE,117,2.0,3.0,24,0.00,,,0.00,VWS V14.01,2013-05-12 18:45:00,
2013-05-12 13:50:00,78.2,39.5,30.21,WSW,246,0.0,3.0,25,0.00,,,0.00,VWS V14.01,2013-05-12 18:50:00,
2013-05-12 13:55:00,78.2,37.4,30.21,ENE,73,1.0,2.0,23,0.00,,,0.00,VWS V14.01,2013-05-12 18:55:00,
2013-05-12 14:00:00,78.1,36.2,30.20,ESE,110,0.0,1.0,22,0.00,,,0.00,VWS V14.01,2013-05-12 19:00:00,
2013-05-12 14:05:00,78.2,36.3,30.20,South,177,1.0,3.0,22,0.00,,,0.00,VWS V14.01,2013-05-12 19:05:00,
2013-05-12 14:10:00,78.0,36.1,30.20,East,98,3.0,8.0,22,0.00,,,0.00,VWS V14.01,2013-05-12 19:10:00,
2013-05-12 14:15:00,78.0,34.9,30.20,SE,128,0.0,0.0,21,0.00,,,0.00,VWS V14.01,2013-05-12 19:15:00,
2013-05-12 14:20:00,78.2,40.5,30.20,SE,143,0.0,4.0,26,0.00,,,0.00,VWS V14.01,2013-05-12 19:20:00,
2013-05-12 14:25:00,78.4,36.5,30.19,East,79,2.0,2.0,22,0.00,,,0.00,VWS V14.01,2013-05-12 19:25:00,
2013-05-12 14:30:00,78.3,35.2,30.19,NNW,341,3.0,3.0,21,0.00,,,0.00,VWS V14.01,2013-05-12 19:30:00,
2013-05-12 14:35:00,78.3,35.2,30.19,East,91,2.0,5.0,21,0.00,,,0.00,VWS V14.01,2013-05-12 19:35:00,
2013-05-12 14:40:00,78.6,35.4,30.19,NNE,19,1.0,4.0,21,0.00,,,0.00,VWS V14.01,2013-05-12 19:40:00,
2013-05-12 14:45:00,78.8,34.4,30.18,SE,142,1.0,2.0,20,0.00,,,0.00,VWS V14.01,2013-05-12 19:45:00,
2013-05-12 14:50:00,79.0,38.1,30.18,East,85,3.0,5.0,23,0.00,,,0.00,VWS V14.01,2013-05-12 19:50:00,
2013-05-12 14:55:00,79.2,34.7,30.18,East,84,0.0,1.0,20,0.00,,,0.00,VWS V14.01,2013-05-12 19:55:00,
2013-05-12 15:00:00,79.2,33.4,30.17,NNE,32,0.0,1.0,19,0.00,,,0.00,VWS V14.01,2013-05-12 20:00:00,
2013-05-12 15:05:00,79.3,37.2,30.17,NE,52,4.0,4.0,22,0.00,,,0.00,VWS V14.01,2013-05-12 20:05:00,
2013-05-12 15:10:00,79.2,33.4,30.17,ENE,57,7.0,7.0,19,0.00,,,0.00,VWS V14.01,2013-05-12 20:10:00,
2013-05-12 15:15:00,79.3,37.2,30.17,NNE,32,5.0,8.0,22,0.00,,,0.00,VWS V14.01,2013-05-12 20:15:00,
2013-05-12 15:20:00,79.5,37.4,30.17,East,88,2.0,6.0,22,0.00,,,0.00,VWS V14.01,2013-05-12 20:20:00,
2013-05-12 15:25:00,79.7,36.3,30.17,ENE,66,4.0,5.0,21,0.00,,,0.00,VWS V14.01,2013-05-12 20:25:00,
2013-05-12 15:30:00,79.9,35.3,30.17,NNW,343,0.0,1.0,20,0.00,,,0.00,VWS V14.01,2013-05-12 20:30:00,
2013-05-12 15:35:00,80.0,35.4,30.17,SE,129,3.0,3.0,20,0.00,,,0.00,VWS V14.01,2013-05-12 20:35:00,
2013-05-12 15:40:00,80.3,36.8,30.17,WNW,287,0.0,2.0,21,0.00,,,0.00,VWS V14.01,2013-05-12 20:40:00,
2013-05-12 15:45:00,80.3,38.0,30.16,West,273,2.0,3.0,22,0.00,,,0.00,VWS V14.01,2013-05-12 20:45:00,
2013-05-12 15:50:00,80.3,36.8,30.16,NNE,12,4.0,4.0,21,0.00,,,0.00,VWS V14.01,2013-05-12 20:50:00,
2013-05-12 15:55:00,80.1,34.2,30.16,North,355,0.0,3.0,19,0.00,,,0.00,VWS V14.01,2013-05-12 20:55:00,
2013-05-12 16:00:00,80.2,35.5,30.16,East,94,2.0,5.0,20,0.00,,,0.00,VWS V14.01,2013-05-12 21:00:00,
2013-05-12 16:05:00,80.4,36.9,30.16,East,96,3.0,5.0,21,0.00,,,0.00,VWS V14.01,2013-05-12 21:05:00,
2013-05-12 16:10:00,80.5,35.8,30.16,ESE,111,4.0,4.0,20,0.00,,,0.00,VWS V14.01,2013-05-12 21:10:00,
2013-05-12 16:15:00,80.6,35.9,30.16,NE,55,1.0,1.0,20,0.00,,,0.00,VWS V14.01,2013-05-12 21:15:00,
2013-05-12 16:20:00,80.9,38.5,30.15,East,92,7.0,7.0,22,0.00,,,0.00,VWS V14.01,2013-05-12 21:20:00,
2013-05-12 16:25:00,81.1,35.0,30.15,SE,144,2.0,2.0,19,0.00,,,0.00,VWS V14.01,2013-05-12 21:25:00,
2013-05-12 16:30:00,81.1,35.0,30.15,SSE,153,2.0,3.0,19,0.00,,,0.00,VWS V14.01,2013-05-12 21:30:00,
2013-05-12 16:35:00,81.1,33.6,30.15,SSE,148,1.0,3.0,18,0.00,,,0.00,VWS V14.01,2013-05-12 21:35:00,
2013-05-12 16:40:00,81.0,34.9,30.15,North,355,2.0,2.0,19,0.00,,,0.00,VWS V14.01,2013-05-12 21:40:00,
2013-05-12 16:45:00,81.2,36.4,30.15,SSE,157,4.0,5.0,20,0.00,,,0.00,VWS V14.01,2013-05-12 21:45:00,
2013-05-12 16:50:00,81.3,36.4,30.14,South,173,2.0,4.0,20,0.00,,,0.00,VWS V14.01,2013-05-12 21:50:00,
2013-05-12 16:55:00,81.1,32.2,30.14,WSW,241,1.0,6.0,17,0.00,,,0.00,VWS V14.01,2013-05-12 21:55:00,
2013-05-12 17:00:00,81.1,35.0,30.14,East,94,1.0,2.0,19,0.00,,,0.00,VWS V14.01,2013-05-12 22:00:00,
2013-05-12 17:05:00,81.2,36.4,30.14,SE,146,6.0,6.0,20,0.00,,,0.00,VWS V14.01,2013-05-12 22:05:00,
2013-05-12 17:10:00,81.2,35.1,30.14,SSE,159,1.0,4.0,19,0.00,,,0.00,VWS V14.01,2013-05-12 22:10:00,
2013-05-12 17:15:00,81.2,35.1,30.14,ENE,62,3.0,5.0,19,0.00,,,0.00,VWS V14.01,2013-05-12 22:15:00,
2013-05-12 17:20:00,81.1,36.3,30.13,East,94,3.0,5.0,20,0.00,,,0.00,VWS V14.01,2013-05-12 22:20:00,
2013-05-12 17:25:00,81.0,34.9,30.13,ENE,71,0.0,1.0,19,0.00,,,0.00,VWS V14.01,2013-05-12 22:25:00,
2013-05-12 17:30:00,81.0,38.6,30.13,SE,138,3.0,3.0,22,0.00,,,0.00,VWS V14.01,2013-05-12 22:30:00,
2013-05-12 17:35:00,81.0,33.5,30.13,South,171,3.0,3.0,18,0.00,,,0.00,VWS V14.01,2013-05-12 22:35:00,
2013-05-12 17:40:00,80.8,34.7,30.13,ESE,111,3.0,3.0,19,0.00,,,0.00,VWS V14.01,2013-05-12 22:40:00,
2013-05-12 17:44:00,80.7,33.3,30.13,SE,131,1.0,2.0,18,0.00,,,0.00,VWS V14.01,2013-05-12 22:44:00,
2013-05-12 17:49:00,80.7,33.3,30.13,ESE,117,5.0,5.0,18,0.00,,,0.00,VWS V14.01,2013-05-12 22:49:00,
2013-05-12 17:54:00,80.7,34.7,30.13,East,98,2.0,3.0,19,0.00,,,0.00,VWS V14.01,2013-05-12 22:54:00,
2013-05-12 17:59:00,80.7,33.3,30.13,East,98,1.0,2.0,18,0.00,,,0.00,VWS V14.01,2013-05-12 22:59:00,
2013-05-12 18:04:00,80.4,34.4,30.13,SE,142,3.0,3.0,19,0.00,,,0.00,VWS V14.01,2013-05-12 23:04:00,
2013-05-12 18:09:00,80.1,34.2,30.12,SSW,198,1.0,4.0,19,0.00,,,0.00,VWS V14.01,2013-05-12 23:09:00,
2013-05-12 18:14:00,79.8,35.2,30.12,East,94,3.0,3.0,20,0.00,,,0.00,VWS V14.01,2013-05-12 23:14:00,
2013-05-12 18:19:00,79.7,33.8,30.12,East,84,2.0,3.0,19,0.00,,,0.00,VWS V14.01,2013-05-12 23:19:00,
2013-05-12 18:24:00,79.6,33.8,30.12,ESE,117,0.0,0.0,19,0.00,,,0.00,VWS V14.01,2013-05-12 23:24:00,
2013-05-12 18:29:00,79.5,35.0,30.12,East,86,3.0,6.0,20,0.00,,,0.00,VWS V14.01,2013-05-12 23:29:00,
2013-05-12 18:34:00,79.2,34.7,30.12,East,84,3.0,3.0,20,0.00,,,0.00,VWS V14.01,2013-05-12 23:34:00,
2013-05-12 18:39:00,78.9,34.5,30.12,East,97,1.0,1.0,20,0.00,,,0.00,VWS V14.01,2013-05-12 23:39:00,
2013-05-12 18:44:00,78.8,33.1,30.12,East,97,1.0,2.0,19,0.00,,,0.00,VWS V14.01,2013-05-12 23:44:00,
2013-05-12 18:49:00,78.6,32.9,30.12,SE,140,4.0,4.0,19,0.00,,,0.00,VWS V14.01,2013-05-12 23:49:00,
2013-05-12 18:54:00,78.3,34.0,30.12,ESE,109,0.0,3.0,20,0.00,,,0.00,VWS V14.01,2013-05-12 23:54:00,
2013-05-12 18:59:00,78.0,33.7,30.12,ESE,109,0.0,1.0,20,0.00,,,0.00,VWS V14.01,2013-05-12 23:59:00,
2013-05-12 19:04:00,77.7,34.7,30.11,SE,128,1.0,1.0,21,0.00,,,0.00,VWS V14.01,2013-05-13 00:04:00,
2013-05-12 19:09:00,77.4,32.0,30.11,East,97,3.0,3.0,19,0.00,,,0.00,VWS V14.01,2013-05-13 00:09:00,
2013-05-12 19:14:00,77.1,33.0,30.11,SE,124,0.0,2.0,20,0.00,,,0.00,VWS V14.01,2013-05-13 00:14:00,
2013-05-12 19:19:00,77.0,34.1,30.11,ESE,107,1.0,1.0,21,0.00,,,0.00,VWS V14.01,2013-05-13 00:19:00,
2013-05-12 19:24:00,76.7,33.9,30.11,ESE,111,3.0,3.0,21,0.00,,,0.00,VWS V14.01,2013-05-13 00:24:00,
2013-05-12 19:29:00,76.4,33.6,30.11,ESE,119,2.0,2.0,21,0.00,,,0.00,VWS V14.01,2013-05-13 00:29:00,
2013-05-12 19:34:00,76.2,34.6,30.10,SE,132,3.0,3.0,22,0.00,,,0.00,VWS V14.01,2013-05-13 00:34:00,
2013-05-12 19:39:00,75.9,34.4,30.11,SE,128,2.0,3.0,22,0.00,,,0.00,VWS V14.01,2013-05-13 00:39:00,
2013-05-12 19:44:00,75.6,34.1,30.11,East,94,2.0,5.0,22,0.00,,,0.00,VWS V14.01,2013-05-13 00:44:00,
2013-05-12 19:49:00,75.4,35.1,30.11,East,101,0.0,2.0,23,0.00,,,0.00,VWS V14.01,2013-05-13 00:49:00,
2013-05-12 19:54:00,75.2,34.9,30.11,East,101,3.0,3.0,23,0.00,,,0.00,VWS V14.01,2013-05-13 00:54:00,
2013-05-12 19:59:00,74.9,35.7,30.11,ESE,111,2.0,2.0,24,0.00,,,0.00,VWS V14.01,2013-05-13 00:59:00,
2013-05-12 20:04:00,74.6,35.5,30.10,ESE,122,2.0,3.0,24,0.00,,,0.00,VWS V14.01,2013-05-13 01:04:00,
2013-05-12 20:09:00,74.4,36.3,30.10,SE,128,1.0,2.0,25,0.00,,,0.00,VWS V14.01,2013-05-13 01:09:00,
2013-05-12 20:14:00,74.0,37.9,30.11,SE,128,0.0,0.0,27,0.00,,,0.00,VWS V14.01,2013-05-13 01:14:00,
2013-05-12 20:19:00,73.5,37.5,30.10,ESE,123,3.0,4.0,27,0.00,,,0.00,VWS V14.01,2013-05-13 01:19:00,
2013-05-12 20:24:00,73.0,37.1,30.11,ESE,108,1.0,2.0,27,0.00,,,0.00,VWS V14.01,2013-05-13 01:24:00,
2013-05-12 20:29:00,72.7,37.8,30.11,ESE,108,2.0,2.0,28,0.00,,,0.00,VWS V14.01,2013-05-13 01:29:00,
2013-05-12 20:34:00,72.3,38.3,30.11,ESE,108,0.0,1.0,29,0.00,,,0.00,VWS V14.01,2013-05-13 01:34:00,
2013-05-12 20:39:00,72.0,38.9,30.11,ESE,108,0.0,0.0,30,0.00,,,0.00,VWS V14.01,2013-05-13 01:39:00,
2013-05-12 20:44:00,71.6,39.4,30.11,ESE,108,0.0,0.0,31,0.00,,,0.00,VWS V14.01,2013-05-13 01:44:00,
2013-05-12 20:49:00,71.1,39.8,30.12,ESE,108,0.0,0.0,32,0.00,,,0.00,VWS V14.01,2013-05-13 01:49:00,
2013-05-12 20:54:00,70.5,39.2,30.12,ESE,108,0.0,1.0,32,0.00,,,0.00,VWS V14.01,2013-05-13 01:54:00,
2013-05-12 20:59:00,70.2,39.8,30.12,ESE,109,1.0,2.0,33,0.00,,,0.00,VWS V14.01,2013-05-13 01:59:00,
2013-05-12 21:04:00,69.7,39.3,30.12,ESE,109,1.0,2.0,33,0.00,,,0.00,VWS V14.01,2013-05-13 02:04:00,
2013-05-12 21:09:00,69.3,40.5,30.12,ESE,109,1.0,1.0,35,0.00,,,0.00,VWS V14.01,2013-05-13 02:09:00,
2013-05-12 21:14:00,68.7,40.0,30.12,ESE,109,0.0,0.0,35,0.00,,,0.00,VWS V14.01,2013-05-13 02:14:00,
2013-05-12 21:19:00,68.3,40.3,30.12,ESE,109,0.0,0.0,36,0.00,,,0.00,VWS V14.01,2013-05-13 02:19:00,
2013-05-12 21:24:00,67.8,40.6,30.12,ESE,109,0.0,0.0,37,0.00,,,0.00,VWS V14.01,2013-05-13 02:24:00,
2013-05-12 21:29:00,67.4,42.3,30.12,ESE,109,0.0,0.0,40,0.00,,,0.00,VWS V14.01,2013-05-13 02:29:00,
2013-05-12 21:34:00,67.1,42.6,30.13,ESE,109,0.0,0.0,41,0.00,,,0.00,VWS V14.01,2013-05-13 02:34:00,
2013-05-12 21:39:00,66.7,42.9,30.12,ESE,109,1.0,2.0,42,0.00,,,0.00,VWS V14.01,2013-05-13 02:39:00,
2013-05-12 21:44:00,66.3,43.2,30.12,ESE,109,1.0,1.0,43,0.00,,,0.00,VWS V14.01,2013-05-13 02:44:00,
2013-05-12 21:49:00,66.1,43.6,30.13,ESE,109,0.0,0.0,44,0.00,,,0.00,VWS V14.01,2013-05-13 02:49:00,
2013-05-12 21:54:00,65.8,43.3,30.13,ESE,109,1.0,2.0,44,0.00,,,0.00,VWS V14.01,2013-05-13 02:54:00,
2013-05-12 21:59:00,65.5,43.0,30.13,ESE,109,0.0,0.0,44,0.00,,,0.00,VWS V14.01,2013-05-13 02:59:00,
2013-05-12 22:04:00,65.2,42.8,30.13,ESE,109,0.0,0.0,44,0.00,,,0.00,VWS V14.01,2013-05-13 03:04:00,
2013-05-12 22:09:00,64.9,42.5,30.13,ESE,109,0.0,1.0,44,0.00,,,0.00,VWS V14.01,2013-05-13 03:09:00,
2013-05-12 22:14:00,64.7,42.3,30.14,SE,133,2.0,2.0,44,0.00,,,0.00,VWS V14.01,2013-05-13 03:14:00,
2013-05-12 22:19:00,64.3,40.7,30.14,SE,143,2.0,3.0,42,0.00,,,0.00,VWS V14.01,2013-05-13 03:19:00,
2013-05-12 22:24:00,64.1,39.9,30.14,SE,131,2.0,2.0,41,0.00,,,0.00,VWS V14.01,2013-05-13 03:24:00,
2013-05-12 22:29:00,63.9,39.8,30.15,SSE,157,1.0,2.0,41,0.00,,,0.00,VWS V14.01,2013-05-13 03:29:00,
2013-05-12 22:34:00,63.8,39.7,30.15,SE,144,0.0,1.0,41,0.00,,,0.00,VWS V14.01,2013-05-13 03:34:00,
2013-05-12 22:39:00,63.7,39.6,30.15,SE,137,0.0,2.0,41,0.00,,,0.00,VWS V14.01,2013-05-13 03:39:00,
2013-05-12 22:44:00,63.6,39.5,30.15,SE,135,1.0,1.0,41,0.00,,,0.00,VWS V14.01,2013-05-13 03:44:00,
2013-05-12 22:49:00,63.5,40.0,30.15,SE,128,1.0,1.0,42,0.00,,,0.00,VWS V14.01,2013-05-13 03:49:00,
2013-05-12 22:54:00,63.4,39.9,30.15,SE,128,1.0,1.0,42,0.00,,,0.00,VWS V14.01,2013-05-13 03:54:00,
2013-05-12 22:59:00,63.4,40.5,30.16,SSE,159,2.0,2.0,43,0.00,,,0.00,VWS V14.01,2013-05-13 03:59:00,
2013-05-12 23:01:00,63.3,40.5,30.15,SE,140,3.0,3.0,43,0.00,,,0.00,VWS V14.01,2013-05-13 04:01:00,
2013-05-12 23:06:00,63.3,41.0,30.16,ESE,107,2.0,2.0,44,0.00,,,0.00,VWS V14.01,2013-05-13 04:06:00,
2013-05-12 23:11:00,63.3,41.0,30.15,SE,134,0.0,4.0,44,0.00,,,0.00,VWS V14.01,2013-05-13 04:11:00,
2013-05-12 23:16:00,63.2,41.0,30.15,SE,132,2.0,3.0,44,0.00,,,0.00,VWS V14.01,2013-05-13 04:16:00,
2013-05-12 23:21:00,63.2,41.5,30.15,South,184,3.0,4.0,45,0.00,,,0.00,VWS V14.01,2013-05-13 04:21:00,
2013-05-12 23:26:00,63.2,41.5,30.15,South,169,1.0,3.0,45,0.00,,,0.00,VWS V14.01,2013-05-13 04:26:00,
2013-05-12 23:31:00,63.2,41.5,30.15,SSE,166,2.0,2.0,45,0.00,,,0.00,VWS V14.01,2013-05-13 04:31:00,
2013-05-12 23:36:00,63.2,41.5,30.15,SSE,162,2.0,2.0,45,0.00,,,0.00,VWS V14.01,2013-05-13 04:36:00,
2013-05-12 23:41:00,63.1,42.0,30.15,SSE,162,0.0,3.0,46,0.00,,,0.00,VWS V14.01,2013-05-13 04:41:00,
2013-05-12 23:46:00,63.1,42.0,30.15,SSE,163,3.0,3.0,46,0.00,,,0.00,VWS V14.01,2013-05-13 04:46:00,
2013-05-12 23:51:00,63.0,42.5,30.15,SSE,153,2.0,3.0,47,0.00,,,0.00,VWS V14.01,2013-05-13 04:51:00,
2013-05-12 23:56:00,62.9,42.4,30.15,SE,140,2.0,3.0,47,0.00,,,0.00,VWS V14.01,2013-05-13 04:56:00,